createdAt,value
2019-05-28T00:00:22.792Z,100418.00
2019-05-28T00:02:52.417Z,100421.00
2019-05-28T00:05:22.004Z,100419.00
2019-05-28T00:07:51.491Z,100408.00
2019-05-28T00:10:22.551Z,100407.00
2019-05-28T00:12:52.062Z,100412.00
2019-05-28T00:15:21.778Z,100406.00
2019-05-28T00:17:51.362Z,100398.00
2019-05-28T00:20:21.492Z,100399.00
2019-05-28T00:22:50.977Z,100406.00
2019-05-28T00:25:20.501Z,100403.00
2019-05-28T00:27:49.992Z,100401.00
2019-05-28T00:30:21.308Z,100400.00
2019-05-28T00:32:50.840Z,100388.00
2019-05-28T00:35:21.340Z,100388.00
2019-05-28T00:37:50.842Z,100386.00
2019-05-28T00:40:20.861Z,100382.00
2019-05-28T00:42:50.415Z,100378.00
2019-05-28T00:45:20.885Z,100370.00
2019-05-28T00:47:50.445Z,100368.00
2019-05-28T00:50:20.197Z,100370.00
2019-05-28T00:52:49.751Z,100376.00
2019-05-28T00:55:19.381Z,100373.00
2019-05-28T00:57:50.189Z,100369.00
2019-05-28T01:00:36.891Z,100367.00
2019-05-28T01:03:01.265Z,100366.00
2019-05-28T01:05:30.743Z,100373.00
2019-05-28T01:08:00.239Z,100369.00
2019-05-28T01:10:29.703Z,100365.00
2019-05-28T01:12:59.216Z,100364.00
2019-05-28T01:15:28.682Z,100362.00
2019-05-28T01:17:58.160Z,100367.00
2019-05-28T01:20:27.663Z,100370.00
2019-05-28T01:22:57.191Z,100365.00
2019-05-28T01:25:26.687Z,100366.00
2019-05-28T01:27:56.203Z,100361.00
2019-05-28T01:30:25.731Z,100353.00
2019-05-28T01:32:55.210Z,100350.00
2019-05-28T01:35:24.730Z,100350.00
2019-05-28T01:37:54.158Z,100345.00
2019-05-28T01:40:23.746Z,100351.00
2019-05-28T01:42:53.213Z,100344.00
2019-05-28T01:45:24.335Z,100351.00
2019-05-28T01:47:57.294Z,100348.00
2019-05-28T01:50:25.004Z,100348.00
2019-05-28T01:52:54.891Z,100343.00
2019-05-28T01:55:24.366Z,100350.00
2019-05-28T01:57:53.831Z,100342.00
2019-05-28T02:00:23.747Z,100341.00
2019-05-28T02:02:53.256Z,100342.00
2019-05-28T02:05:22.833Z,100338.00
2019-05-28T02:07:52.177Z,100349.00
2019-05-28T02:10:21.885Z,100350.00
2019-05-28T02:12:51.425Z,100344.00
2019-05-28T02:15:21.867Z,100338.00
2019-05-28T02:17:51.425Z,100338.00
2019-05-28T02:20:20.967Z,100340.00
2019-05-28T02:22:50.479Z,100331.00
2019-05-28T02:25:20.204Z,100334.00
2019-05-28T02:27:49.685Z,100326.00
2019-05-28T02:30:20.708Z,100335.00
2019-05-28T02:32:50.165Z,100335.00
2019-05-28T02:35:19.959Z,100331.00
2019-05-28T02:37:49.504Z,100320.00
2019-05-28T02:40:19.688Z,100318.00
2019-05-28T02:42:49.206Z,100318.00
2019-05-28T02:45:19.733Z,100314.00
2019-05-28T02:47:49.210Z,100314.00
2019-05-28T02:50:25.342Z,100320.00
2019-05-28T02:52:55.164Z,100318.00
2019-05-28T02:55:24.823Z,100320.00
2019-05-28T02:57:54.527Z,100310.00
2019-05-28T03:00:24.220Z,100321.00
2019-05-28T03:02:54.410Z,100316.00
2019-05-28T03:05:23.924Z,100310.00
2019-05-28T03:07:56.561Z,100313.00
2019-05-28T03:11:01.680Z,100319.00
2019-05-28T03:13:09.432Z,100315.00
2019-05-28T03:15:43.245Z,100315.00
2019-05-28T03:18:15.102Z,100312.00
2019-05-28T03:20:46.304Z,100307.00
2019-05-28T03:23:17.818Z,100311.00
2019-05-28T03:25:48.939Z,100304.00
2019-05-28T03:28:18.472Z,100300.00
2019-05-28T03:30:47.972Z,100300.00
2019-05-28T03:33:17.768Z,100306.00
2019-05-28T03:35:50.424Z,100292.00
2019-05-28T03:38:22.589Z,100303.00
2019-05-28T03:40:52.082Z,100299.00
2019-05-28T03:43:21.533Z,100294.00
2019-05-28T03:45:51.043Z,100298.00
2019-05-28T03:48:20.540Z,100307.00
2019-05-28T03:50:50.061Z,100298.00
2019-05-28T03:53:19.556Z,100300.00
2019-05-28T03:55:49.069Z,100306.00
2019-05-28T03:58:18.984Z,100307.00
2019-05-28T04:00:48.462Z,100315.00
2019-05-28T04:03:17.916Z,100315.00
2019-05-28T04:05:47.397Z,100301.00
2019-05-28T04:08:16.946Z,100308.00
2019-05-28T04:10:46.514Z,100299.00
2019-05-28T04:13:15.983Z,100304.00
2019-05-28T04:15:45.459Z,100304.00
2019-05-28T04:18:14.973Z,100301.00
2019-05-28T04:20:44.459Z,100306.00
2019-05-28T04:23:17.537Z,100298.00
2019-05-28T04:25:47.599Z,100298.00
2019-05-28T04:28:17.129Z,100293.00
2019-05-28T04:30:46.760Z,100296.00
2019-05-28T04:33:16.261Z,100296.00
2019-05-28T04:35:45.735Z,100298.00
2019-05-28T04:38:15.224Z,100294.00
2019-05-28T04:40:44.759Z,100299.00
2019-05-28T04:43:14.227Z,100291.00
2019-05-28T04:45:43.724Z,100286.00
2019-05-28T04:48:13.241Z,100289.00
2019-05-28T04:50:42.460Z,100289.00
2019-05-28T04:53:11.966Z,100288.00
2019-05-28T04:55:41.423Z,100296.00
2019-05-28T04:58:10.917Z,100295.00
2019-05-28T05:00:40.427Z,100295.00
2019-05-28T05:03:09.903Z,100295.00
2019-05-28T05:05:39.390Z,100296.00
2019-05-28T05:08:08.833Z,100304.00
2019-05-28T05:10:38.360Z,100298.00
2019-05-28T05:13:07.826Z,100301.00
2019-05-28T05:15:37.390Z,100292.00
2019-05-28T05:18:06.886Z,100298.00
2019-05-28T05:20:36.363Z,100305.00
2019-05-28T05:23:06.391Z,100308.00
2019-05-28T05:25:35.856Z,100314.00
2019-05-28T05:28:05.582Z,100312.00
2019-05-28T05:30:35.910Z,100304.00
2019-05-28T05:33:19.413Z,100318.00
2019-05-28T05:35:36.661Z,100320.00
2019-05-28T05:38:06.221Z,100319.00
2019-05-28T05:40:35.742Z,100338.00
2019-05-28T05:43:05.266Z,100322.00
2019-05-28T05:45:34.773Z,100322.00
2019-05-28T05:48:04.299Z,100330.00
2019-05-28T05:50:33.736Z,100335.00
2019-05-28T05:53:03.298Z,100334.00
2019-05-28T05:55:32.828Z,100332.00
2019-05-28T05:58:02.390Z,100335.00
2019-05-28T06:00:31.884Z,100338.00
2019-05-28T06:03:01.370Z,100334.00
2019-05-28T06:05:30.820Z,100338.00
2019-05-28T06:08:00.314Z,100337.00
2019-05-28T06:10:29.769Z,100341.00
2019-05-28T06:12:59.228Z,100335.00
2019-05-28T06:15:28.724Z,100334.00
2019-05-28T06:17:58.256Z,100337.00
2019-05-28T06:20:27.723Z,100326.00
2019-05-28T06:22:57.216Z,100321.00
2019-05-28T06:25:26.820Z,100320.00
2019-05-28T06:27:56.305Z,100321.00
2019-05-28T06:30:25.833Z,100326.00
2019-05-28T06:32:55.394Z,100331.00
2019-05-28T06:35:24.949Z,100325.00
2019-05-28T06:37:54.420Z,100333.00
2019-05-28T06:40:24.321Z,100330.00
2019-05-28T06:42:53.792Z,100333.00
2019-05-28T06:45:23.874Z,100335.00
2019-05-28T06:47:53.357Z,100338.00
2019-05-28T06:50:23.231Z,100343.00
2019-05-28T06:52:52.815Z,100346.00
2019-05-28T06:55:22.317Z,100351.00
2019-05-28T06:57:51.789Z,100351.00
2019-05-28T07:00:22.118Z,100346.00
2019-05-28T07:02:51.585Z,100343.00
2019-05-28T07:05:21.214Z,100348.00
2019-05-28T07:07:50.707Z,100346.00
2019-05-28T07:10:20.683Z,100345.00
2019-05-28T07:12:50.369Z,100352.00
2019-05-28T07:15:20.178Z,100352.00
2019-05-28T07:17:49.609Z,100350.00
2019-05-28T07:20:19.397Z,100349.00
2019-05-28T07:22:48.882Z,100345.00
2019-05-28T07:25:18.337Z,100341.00
2019-05-28T07:27:47.826Z,100348.00
2019-05-28T07:30:17.540Z,100341.00
2019-05-28T07:32:47.235Z,100344.00
2019-05-28T07:35:16.900Z,100348.00
2019-05-28T07:37:46.345Z,100338.00
2019-05-28T07:40:30.343Z,100340.00
2019-05-28T07:42:47.027Z,100343.00
2019-05-28T07:45:16.973Z,100338.00
2019-05-28T07:47:46.436Z,100330.00
2019-05-28T07:50:15.913Z,100335.00
2019-05-28T07:52:45.710Z,100341.00
2019-05-28T07:55:15.274Z,100339.00
2019-05-28T07:57:45.512Z,100334.00
2019-05-28T08:00:15.578Z,100335.00
2019-05-28T08:02:45.036Z,100334.00
2019-05-28T08:05:16.991Z,100337.00
2019-05-28T08:07:46.083Z,100336.00
2019-05-28T08:10:15.750Z,100344.00
2019-05-28T08:12:45.269Z,100345.00
2019-05-28T08:15:15.571Z,100348.00
2019-05-28T08:17:46.696Z,100341.00
2019-05-28T08:20:18.508Z,100342.00
2019-05-28T08:22:47.446Z,100351.00
2019-05-28T08:25:33.685Z,100352.00
2019-05-28T08:27:48.381Z,100361.00
2019-05-28T08:30:18.165Z,100357.00
2019-05-28T08:32:47.666Z,100363.00
2019-05-28T08:35:17.273Z,100363.00
2019-05-28T08:37:46.801Z,100370.00
2019-05-28T08:40:16.869Z,100372.00
2019-05-28T08:42:46.482Z,100376.00
2019-05-28T08:45:16.094Z,100382.00
2019-05-28T08:47:45.557Z,100383.00
2019-05-28T08:50:30.879Z,100383.00
2019-05-28T08:52:46.772Z,100387.00
2019-05-28T08:55:16.454Z,100394.00
2019-05-28T08:57:45.906Z,100402.00
2019-05-28T09:00:19.986Z,100400.00
2019-05-28T09:02:49.499Z,100396.00
2019-05-28T09:05:26.441Z,100406.00
2019-05-28T09:07:50.410Z,100401.00
2019-05-28T09:10:20.008Z,100405.00
2019-05-28T09:12:49.473Z,100403.00
2019-05-28T09:15:19.036Z,100405.00
2019-05-28T09:17:48.499Z,100403.00
2019-05-28T09:20:18.073Z,100404.00
2019-05-28T09:22:47.660Z,100403.00
2019-05-28T09:25:17.243Z,100410.00
2019-05-28T09:27:46.780Z,100411.00
2019-05-28T09:30:17.342Z,100423.00
2019-05-28T09:32:46.880Z,100424.00
2019-05-28T09:35:16.557Z,100429.00
2019-05-28T09:37:46.093Z,100423.00
2019-05-28T09:40:15.706Z,100426.00
2019-05-28T09:42:45.220Z,100427.00
2019-05-28T09:45:22.465Z,100427.00
2019-05-28T09:47:46.438Z,100435.00
2019-05-28T09:50:30.202Z,100430.00
2019-05-28T09:52:54.943Z,100435.00
2019-05-28T09:55:20.169Z,100434.00
2019-05-28T09:57:49.717Z,100442.00
2019-05-28T10:00:22.869Z,100447.00
2019-05-28T10:02:52.452Z,100447.00
2019-05-28T10:05:22.514Z,100448.00
2019-05-28T10:07:52.167Z,100446.00
2019-05-28T10:10:22.133Z,100449.00
2019-05-28T10:12:51.610Z,100444.00
2019-05-28T10:15:21.602Z,100450.00
2019-05-28T10:17:51.075Z,100442.00
2019-05-28T10:20:22.624Z,100445.00
2019-05-28T10:22:52.180Z,100447.00
2019-05-28T10:25:22.261Z,100442.00
2019-05-28T10:28:01.046Z,100448.00
2019-05-28T10:30:24.645Z,100445.00
2019-05-28T10:32:54.103Z,100451.00
2019-05-28T10:35:24.742Z,100454.00
2019-05-28T10:37:54.227Z,100453.00
2019-05-28T10:40:24.144Z,100456.00
2019-05-28T10:42:53.639Z,100465.00
2019-05-28T10:45:25.051Z,100461.00
2019-05-28T10:47:54.544Z,100467.00
2019-05-28T10:50:24.076Z,100462.00
2019-05-28T10:52:53.656Z,100472.00
2019-05-28T10:55:23.266Z,100474.00
2019-05-28T10:57:52.953Z,100483.00
2019-05-28T11:00:23.228Z,100490.00
2019-05-28T11:02:52.767Z,100494.00
2019-05-28T11:05:23.185Z,100491.00
2019-05-28T11:07:52.735Z,100502.00
2019-05-28T11:10:24.847Z,100500.00
2019-05-28T11:12:54.316Z,100510.00
2019-05-28T11:15:25.141Z,100518.00
2019-05-28T11:17:54.781Z,100512.00
2019-05-28T11:20:24.980Z,100521.00
2019-05-28T11:22:54.980Z,100519.00
2019-05-28T11:25:25.006Z,100528.00
2019-05-28T11:27:54.448Z,100527.00
2019-05-28T11:30:24.757Z,100531.00
2019-05-28T11:32:54.248Z,100539.00
2019-05-28T11:35:24.386Z,100532.00
2019-05-28T11:37:53.913Z,100539.00
2019-05-28T11:40:23.942Z,100537.00
2019-05-28T11:42:53.234Z,100540.00
2019-05-28T11:45:23.109Z,100543.00
2019-05-28T11:47:52.643Z,100542.00
2019-05-28T11:50:22.433Z,100549.00
2019-05-28T11:52:51.939Z,100557.00
2019-05-28T11:55:21.987Z,100553.00
2019-05-28T11:57:51.555Z,100558.00
2019-05-28T12:00:21.867Z,100559.00
2019-05-28T12:02:51.486Z,100563.00
2019-05-28T12:05:22.452Z,100563.00
2019-05-28T12:07:52.362Z,100555.00
2019-05-28T12:10:22.508Z,100553.00
2019-05-28T12:12:51.970Z,100565.00
2019-05-28T12:15:21.957Z,100568.00
2019-05-28T12:17:51.635Z,100568.00
2019-05-28T12:20:22.676Z,100562.00
2019-05-28T12:23:09.788Z,100570.00
2019-05-28T12:25:25.309Z,100566.00
2019-05-28T12:27:54.755Z,100574.00
2019-05-28T12:30:25.652Z,100576.00
2019-05-28T12:32:55.190Z,100579.00
2019-05-28T12:35:28.973Z,100593.00
2019-05-28T12:37:56.349Z,100594.00
2019-05-28T12:40:26.637Z,100594.00
2019-05-28T12:42:56.156Z,100592.00
2019-05-28T12:45:34.774Z,100595.00
2019-05-28T12:48:09.986Z,100592.00
2019-05-28T12:50:28.636Z,100598.00
2019-05-28T12:52:58.146Z,100604.00
2019-05-28T12:55:27.701Z,100603.00
2019-05-28T12:57:57.192Z,100605.00
2019-05-28T13:00:28.112Z,100609.00
2019-05-28T13:02:57.957Z,100607.00
2019-05-28T13:05:29.976Z,100616.00
2019-05-28T13:08:08.550Z,100615.00
2019-05-28T13:10:30.608Z,100621.00
2019-05-28T13:13:00.108Z,100632.00
2019-05-28T13:15:29.657Z,100623.00
2019-05-28T13:17:59.308Z,100626.00
2019-05-28T13:20:28.893Z,100623.00
2019-05-28T13:22:58.371Z,100631.00
2019-05-28T13:25:27.950Z,100632.00
2019-05-28T13:27:57.474Z,100637.00
2019-05-28T13:30:27.012Z,100642.00
2019-05-28T13:32:56.584Z,100643.00
2019-05-28T13:35:27.241Z,100657.00
2019-05-28T13:37:56.791Z,100657.00
2019-05-28T13:40:26.566Z,100653.00
2019-05-28T13:42:55.888Z,100655.00
2019-05-28T13:45:25.659Z,100655.00
2019-05-28T13:47:54.964Z,100663.00
2019-05-28T13:50:25.161Z,100667.00
2019-05-28T13:52:54.687Z,100667.00
2019-05-28T13:55:24.527Z,100666.00
2019-05-28T13:57:54.057Z,100670.00
2019-05-28T14:00:24.179Z,100669.00
2019-05-28T14:02:53.700Z,100680.00
2019-05-28T14:05:23.484Z,100678.00
2019-05-28T14:07:52.986Z,100683.00
2019-05-28T14:10:23.092Z,100681.00
2019-05-28T14:12:52.599Z,100684.00
2019-05-28T14:15:22.485Z,100690.00
2019-05-28T14:17:52.024Z,100696.00
2019-05-28T14:20:22.754Z,100690.00
2019-05-28T14:22:52.269Z,100700.00
2019-05-28T14:25:21.812Z,100696.00
2019-05-28T14:27:51.307Z,100704.00
2019-05-28T14:30:24.091Z,100716.00
2019-05-28T14:32:53.756Z,100708.00
2019-05-28T14:35:23.342Z,100712.00
2019-05-28T14:37:55.214Z,100717.00
2019-05-28T14:40:25.264Z,100716.00
2019-05-28T14:42:54.829Z,100713.00
2019-05-28T14:45:25.320Z,100730.00
2019-05-28T14:47:55.256Z,100737.00
2019-05-28T14:50:24.811Z,100740.00
2019-05-28T14:52:54.289Z,100746.00
2019-05-28T14:55:23.921Z,100747.00
2019-05-28T14:57:53.486Z,100743.00
2019-05-28T15:00:25.175Z,100750.00
2019-05-28T15:02:54.631Z,100752.00
2019-05-28T15:05:24.166Z,100758.00
2019-05-28T15:07:53.649Z,100752.00
2019-05-28T15:10:23.333Z,100752.00
2019-05-28T15:12:52.854Z,100751.00
2019-05-28T15:15:35.068Z,100757.00
2019-05-28T15:17:53.610Z,100751.00
2019-05-28T15:20:23.161Z,100765.00
2019-05-28T15:22:55.407Z,100766.00
2019-05-28T15:25:24.908Z,100771.00
2019-05-28T15:27:54.419Z,100777.00
2019-05-28T15:30:25.982Z,100780.00
2019-05-28T15:32:55.570Z,100777.00
2019-05-28T15:35:25.159Z,100779.00
2019-05-28T15:37:54.602Z,100786.00
2019-05-28T15:40:24.314Z,100788.00
2019-05-28T15:43:05.565Z,100791.00
2019-05-28T15:45:24.954Z,100791.00
2019-05-28T15:47:54.468Z,100799.00
2019-05-28T15:50:24.079Z,100797.00
2019-05-28T15:52:53.538Z,100803.00
2019-05-28T15:55:23.059Z,100803.00
2019-05-28T15:57:52.536Z,100805.00
2019-05-28T16:00:24.177Z,100807.00
2019-05-28T16:02:54.020Z,100815.00
2019-05-28T16:05:23.645Z,100806.00
2019-05-28T16:07:53.148Z,100804.00
2019-05-28T16:10:22.873Z,100813.00
2019-05-28T16:12:52.358Z,100809.00
2019-05-28T16:15:21.992Z,100811.00
2019-05-28T16:17:51.496Z,100805.00
2019-05-28T16:20:21.193Z,100816.00
2019-05-28T16:22:50.673Z,100821.00
2019-05-28T16:25:20.141Z,100830.00
2019-05-28T16:27:49.619Z,100833.00
2019-05-28T16:30:20.817Z,100848.00
2019-05-28T16:32:50.365Z,100852.00
2019-05-28T16:35:22.816Z,100860.00
2019-05-28T16:37:52.271Z,100859.00
2019-05-28T16:40:21.839Z,100862.00
2019-05-28T16:42:51.300Z,100876.00
2019-05-28T16:45:21.422Z,100873.00
2019-05-28T16:47:50.879Z,100878.00
2019-05-28T16:50:20.651Z,100874.00
2019-05-28T16:52:50.115Z,100880.00
2019-05-28T16:55:20.119Z,100883.00
2019-05-28T16:57:49.620Z,100890.00
2019-05-28T17:00:20.204Z,100900.00
2019-05-28T17:02:49.790Z,100901.00
2019-05-28T17:05:19.489Z,100906.00
2019-05-28T17:07:49.058Z,100905.00
2019-05-28T17:10:32.531Z,100920.00
2019-05-28T17:12:50.036Z,100919.00
2019-05-28T17:15:20.330Z,100919.00
2019-05-28T17:17:49.822Z,100926.00
2019-05-28T17:20:19.805Z,100932.00
2019-05-28T17:22:49.323Z,100925.00
2019-05-28T17:25:19.173Z,100937.00
2019-05-28T17:27:48.642Z,100930.00
2019-05-28T17:30:23.578Z,100940.00
2019-05-28T17:32:50.071Z,100936.00
2019-05-28T17:35:19.623Z,100947.00
2019-05-28T17:37:49.105Z,100949.00
2019-05-28T17:40:23.048Z,100959.00
2019-05-28T17:42:51.323Z,100964.00
2019-05-28T17:45:21.065Z,100963.00
2019-05-28T17:47:50.545Z,100969.00
2019-05-28T17:50:20.284Z,100973.00
2019-05-28T17:52:51.689Z,100965.00
2019-05-28T17:55:21.362Z,100976.00
2019-05-28T17:57:51.068Z,100979.00
2019-05-28T18:00:20.543Z,100976.00
2019-05-28T18:02:50.131Z,100982.00
2019-05-28T18:05:19.685Z,100985.00
2019-05-28T18:07:49.186Z,100994.00
2019-05-28T18:10:19.699Z,100996.00
2019-05-28T18:12:49.241Z,100995.00
2019-05-28T18:15:19.100Z,101002.00
2019-05-28T18:17:48.541Z,101000.00
2019-05-28T18:20:18.381Z,101006.00
2019-05-28T18:22:47.907Z,101008.00
2019-05-28T18:25:20.096Z,101020.00
2019-05-28T18:27:48.788Z,101013.00
2019-05-28T18:30:18.865Z,101022.00
2019-05-28T18:32:48.308Z,101019.00
2019-05-28T18:35:18.075Z,101022.00
2019-05-28T18:37:47.531Z,101030.00
2019-05-28T18:40:19.101Z,101029.00
2019-05-28T18:42:48.596Z,101021.00
2019-05-28T18:45:18.285Z,101031.00
2019-05-28T18:47:47.965Z,101042.00
2019-05-28T18:50:17.970Z,101044.00
2019-05-28T18:52:47.462Z,101045.00
2019-05-28T18:55:17.132Z,101047.00
2019-05-28T18:57:50.443Z,101054.00
2019-05-28T19:00:18.297Z,101064.00
2019-05-28T19:02:47.768Z,101061.00
2019-05-28T19:05:18.486Z,101067.00
2019-05-28T19:07:47.974Z,101067.00
2019-05-28T19:10:17.938Z,101068.00
2019-05-28T19:12:47.532Z,101075.00
2019-05-28T19:15:17.704Z,101080.00
2019-05-28T19:17:47.181Z,101084.00
2019-05-28T19:20:17.775Z,101087.00
2019-05-28T19:22:47.230Z,101085.00
2019-05-28T19:25:17.034Z,101099.00
2019-05-28T19:27:46.563Z,101096.00
2019-05-28T19:30:19.506Z,101109.00
2019-05-28T19:32:49.347Z,101116.00
2019-05-28T19:35:19.035Z,101114.00
2019-05-28T19:37:49.020Z,101126.00
2019-05-28T19:40:23.113Z,101133.00
2019-05-28T19:42:52.589Z,101135.00
2019-05-28T19:45:22.106Z,101140.00
2019-05-28T19:47:51.588Z,101140.00
2019-05-28T19:50:21.092Z,101148.00
2019-05-28T19:52:50.593Z,101150.00
2019-05-28T19:55:20.054Z,101154.00
2019-05-28T19:57:49.533Z,101158.00
2019-05-28T20:00:19.524Z,101159.00
2019-05-28T20:02:49.048Z,101159.00
2019-05-28T20:05:18.808Z,101165.00
2019-05-28T20:07:49.818Z,101170.00
2019-05-28T20:10:19.730Z,101176.00
2019-05-28T20:12:49.281Z,101176.00
2019-05-28T20:15:22.553Z,101184.00
2019-05-28T20:17:50.610Z,101188.00
2019-05-28T20:20:20.680Z,101192.00
2019-05-28T20:22:50.229Z,101195.00
2019-05-28T20:25:19.932Z,101192.00
2019-05-28T20:27:49.707Z,101191.00
2019-05-28T20:30:21.203Z,101203.00
2019-05-28T20:32:50.675Z,101207.00
2019-05-28T20:35:20.499Z,101211.00
2019-05-28T20:37:50.825Z,101228.00
2019-05-28T20:40:20.769Z,101222.00
2019-05-28T20:42:50.225Z,101223.00
2019-05-28T20:45:20.040Z,101229.00
2019-05-28T20:47:49.514Z,101232.00
2019-05-28T20:50:19.713Z,101231.00
2019-05-28T20:52:49.159Z,101240.00
2019-05-28T20:55:21.394Z,101236.00
2019-05-28T20:57:51.215Z,101239.00
2019-05-28T21:00:20.993Z,101238.00
2019-05-28T21:02:51.609Z,101249.00
2019-05-28T21:05:21.509Z,101250.00
2019-05-28T21:07:52.998Z,101248.00
2019-05-28T21:10:22.165Z,101249.00
2019-05-28T21:12:52.665Z,101257.00
2019-05-28T21:15:22.531Z,101264.00
2019-05-28T21:17:53.102Z,101269.00
2019-05-28T21:20:22.758Z,101273.00
2019-05-28T21:22:52.212Z,101274.00
2019-05-28T21:25:21.742Z,101287.00
2019-05-28T21:27:52.238Z,101285.00
2019-05-28T21:30:22.179Z,101283.00
2019-05-28T21:32:52.574Z,101294.00
2019-05-28T21:35:22.083Z,101300.00
2019-05-28T21:37:51.535Z,101293.00
2019-05-28T21:40:21.438Z,101307.00
2019-05-28T21:43:01.529Z,101301.00
2019-05-28T21:45:23.143Z,101303.00
2019-05-28T21:47:52.787Z,101305.00
2019-05-28T21:50:22.320Z,101308.00
2019-05-28T21:52:52.849Z,101313.00
2019-05-28T21:55:22.431Z,101313.00
2019-05-28T21:57:53.495Z,101313.00
2019-05-28T22:00:37.953Z,101323.00
2019-05-28T22:03:07.520Z,101321.00
2019-05-28T22:05:36.977Z,101326.00
2019-05-28T22:08:07.751Z,101325.00
2019-05-28T22:10:37.244Z,101328.00
2019-05-28T22:13:21.321Z,101334.00
2019-05-28T22:15:37.967Z,101335.00
2019-05-28T22:18:08.537Z,101331.00
2019-05-28T22:20:38.157Z,101338.00
2019-05-28T22:23:08.735Z,101341.00
2019-05-28T22:25:38.430Z,101342.00
2019-05-28T22:28:07.899Z,101348.00
2019-05-28T22:30:37.420Z,101350.00
2019-05-28T22:33:08.246Z,101355.00
2019-05-28T22:35:37.897Z,101355.00
2019-05-28T22:38:07.590Z,101361.00
2019-05-28T22:40:37.312Z,101367.00
2019-05-28T22:43:06.940Z,101367.00
2019-05-28T22:45:41.909Z,101370.00
2019-05-28T22:48:14.681Z,101381.00
2019-05-28T22:50:38.691Z,101380.00
2019-05-28T22:53:08.290Z,101382.00
2019-05-28T22:55:37.708Z,101388.00
2019-05-28T22:58:08.449Z,101390.00
2019-05-28T23:00:38.292Z,101382.00
2019-05-28T23:03:09.073Z,101387.00
2019-05-28T23:05:38.711Z,101387.00
2019-05-28T23:08:08.150Z,101392.00
2019-05-28T23:10:37.573Z,101387.00
2019-05-28T23:13:07.145Z,101389.00
2019-05-28T23:15:36.601Z,101389.00
2019-05-28T23:18:07.253Z,101403.00
2019-05-28T23:20:37.328Z,101403.00
2019-05-28T23:23:07.284Z,101405.00
2019-05-28T23:25:36.849Z,101414.00
2019-05-28T23:28:06.296Z,101409.00
2019-05-28T23:30:35.764Z,101421.00
2019-05-28T23:33:06.263Z,101430.00
2019-05-28T23:35:35.772Z,101424.00
2019-05-28T23:38:05.258Z,101416.00
2019-05-28T23:40:34.722Z,101423.00
2019-05-28T23:43:05.302Z,101426.00
2019-05-28T23:45:35.020Z,101429.00
2019-05-28T23:48:08.554Z,101437.00
2019-05-28T23:50:36.156Z,101435.00
2019-05-28T23:53:05.855Z,101440.00
2019-05-28T23:55:35.423Z,101451.00
2019-05-28T23:58:05.817Z,101445.00
